sensor_id;sensor_type;location;lat;lon;timestamp;pressure;altitude;pressure_sealevel;temperature
61390;BMP280;47260;48.274;19.814;2023-03-01T00:00:36;100404.00;;;0.70
61390;BMP280;47260;48.274;19.814;2023-03-01T00:02:07;100402.06;;;0.74
61390;BMP280;47260;48.274;19.814;2023-03-01T00:03:39;100398.66;;;0.73
61390;BMP280;47260;48.274;19.814;2023-03-01T00:05:09;100397.94;;;0.73
61390;BMP280;47260;48.274;19.814;2023-03-01T00:06:41;100393.78;;;0.68
61390;BMP280;47260;48.274;19.814;2023-03-01T00:08:17;100399.50;;;0.63
61390;BMP280;47260;48.274;19.814;2023-03-01T00:09:48;100394.59;;;0.65
61390;BMP280;47260;48.274;19.814;2023-03-01T00:11:21;100396.81;;;0.70
61390;BMP280;47260;48.274;19.814;2023-03-01T00:12:53;100392.66;;;0.73
61390;BMP280;47260;48.274;19.814;2023-03-01T00:14:26;100392.66;;;0.73
61390;BMP280;47260;48.274;19.814;2023-03-01T00:15:58;100392.66;;;0.73
61390;BMP280;47260;48.274;19.814;2023-03-01T00:17:28;100391.13;;;0.72
61390;BMP280;47260;48.274;19.814;2023-03-01T00:19:00;100388.91;;;0.70
61390;BMP280;47260;48.274;19.814;2023-03-01T00:20:30;100388.13;;;0.70
61390;BMP280;47260;48.274;19.814;2023-03-01T00:22:02;100393.78;;;0.68
61390;BMP280;47260;48.274;19.814;2023-03-01T00:23:35;100389.25;;;0.68
61390;BMP280;47260;48.274;19.814;2023-03-01T00:25:06;100386.63;;;0.68
61390;BMP280;47260;48.274;19.814;2023-03-01T00:26:37;100386.28;;;0.66
61390;BMP280;47260;48.274;19.814;2023-03-01T00:28:09;100383.22;;;0.68
61390;BMP280;47260;48.274;19.814;2023-03-01T00:29:40;100383.97;;;0.68
61390;BMP280;47260;48.274;19.814;2023-03-01T00:31:13;100380.97;;;0.70
61390;BMP280;47260;48.274;19.814;2023-03-01T00:32:43;100381.31;;;0.72
61390;BMP280;47260;48.274;19.814;2023-03-01T00:34:15;100378.69;;;0.72
61390;BMP280;47260;48.274;19.814;2023-03-01T00:35:46;100380.53;;;0.75
61390;BMP280;47260;48.274;19.814;2023-03-01T00:37:17;100382.00;;;0.80
61390;BMP280;47260;48.274;19.814;2023-03-01T00:38:50;100377.47;;;0.80
61390;BMP280;47260;48.274;19.814;2023-03-01T00:40:21;100364.97;;;0.81
61390;BMP280;47260;48.274;19.814;2023-03-01T00:41:53;100372.53;;;0.82
61390;BMP280;47260;48.274;19.814;2023-03-01T00:43:24;100361.91;;;0.86
61390;BMP280;47260;48.274;19.814;2023-03-01T00:44:55;100357.38;;;0.86
61390;BMP280;47260;48.274;19.814;2023-03-01T00:46:26;100358.22;;;0.80
61390;BMP280;47260;48.274;19.814;2023-03-01T00:47:57;100350.28;;;0.80
61390;BMP280;47260;48.274;19.814;2023-03-01T00:49:29;100341.59;;;0.79
61390;BMP280;47260;48.274;19.814;2023-03-01T00:51:04;100348.41;;;0.80
61390;BMP280;47260;48.274;19.814;2023-03-01T00:52:34;100337.41;;;0.82
61390;BMP280;47260;48.274;19.814;2023-03-01T00:54:08;100339.34;;;0.78
61390;BMP280;47260;48.274;19.814;2023-03-01T00:55:40;100337.88;;;0.73
61390;BMP280;47260;48.274;19.814;2023-03-01T00:57:11;100331.47;;;0.71
61390;BMP280;47260;48.274;19.814;2023-03-01T00:58:43;100338.28;;;0.72
61390;BMP280;47260;48.274;19.814;2023-03-01T01:00:15;100342.78;;;0.75
61390;BMP280;47260;48.274;19.814;2023-03-01T01:01:46;100337.09;;;0.76
61390;BMP280;47260;48.274;19.814;2023-03-01T01:03:18;100328.03;;;0.77
61390;BMP280;47260;48.274;19.814;2023-03-01T01:04:48;100324.97;;;0.79
61390;BMP280;47260;48.274;19.814;2023-03-01T01:06:21;100335.91;;;0.81
61390;BMP280;47260;48.274;19.814;2023-03-01T01:07:52;100339.31;;;0.81
61390;BMP280;47260;48.274;19.814;2023-03-01T01:09:25;100335.91;;;0.81
61390;BMP280;47260;48.274;19.814;2023-03-01T01:10:57;100335.53;;;0.82
61390;BMP280;47260;48.274;19.814;2023-03-01T01:12:27;100328.34;;;0.83
61390;BMP280;47260;48.274;19.814;2023-03-01T01:14:00;100337.41;;;0.85
61390;BMP280;47260;48.274;19.814;2023-03-01T01:15:33;100329.00;;;0.90
61390;BMP280;47260;48.274;19.814;2023-03-01T01:17:05;100326.00;;;0.92
61390;BMP280;47260;48.274;19.814;2023-03-01T01:18:36;100322.16;;;0.96
61390;BMP280;47260;48.274;19.814;2023-03-01T01:20:07;100325.91;;;0.99
61390;BMP280;47260;48.274;19.814;2023-03-01T01:21:40;100328.19;;;0.97
61390;BMP280;47260;48.274;19.814;2023-03-01T01:23:13;100322.91;;;0.97
61390;BMP280;47260;48.274;19.814;2023-03-01T01:24:46;100314.97;;;0.97
61390;BMP280;47260;48.274;19.814;2023-03-01T01:26:19;100312.34;;;0.97
61390;BMP280;47260;48.274;19.814;2023-03-01T01:27:49;100319.91;;;0.95
61390;BMP280;47260;48.274;19.814;2023-03-01T01:29:21;100318.41;;;0.94
61390;BMP280;47260;48.274;19.814;2023-03-01T01:30:52;100319.59;;;0.89
61390;BMP280;47260;48.274;19.814;2023-03-01T01:32:23;100314.75;;;0.84
61390;BMP280;47260;48.274;19.814;2023-03-01T01:33:55;100312.88;;;0.81
61390;BMP280;47260;48.274;19.814;2023-03-01T01:35:27;100307.25;;;0.79
61390;BMP280;47260;48.274;19.814;2023-03-01T01:36:59;100309.53;;;0.77
61390;BMP280;47260;48.274;19.814;2023-03-01T01:38:32;100310.34;;;0.71
61390;BMP280;47260;48.274;19.814;2023-03-01T01:40:05;100305.06;;;0.71
61390;BMP280;47260;48.274;19.814;2023-03-01T01:41:36;100299.75;;;0.71
61390;BMP280;47260;48.274;19.814;2023-03-01T01:43:09;100294.47;;;0.71
61390;BMP280;47260;48.274;19.814;2023-03-01T01:44:44;100300.53;;;0.71
61390;BMP280;47260;48.274;19.814;2023-03-01T01:46:20;100298.97;;;0.74
61390;BMP280;47260;48.274;19.814;2023-03-01T01:47:51;100297.09;;;0.74
61390;BMP280;47260;48.274;19.814;2023-03-01T01:49:25;100295.59;;;0.73
61390;BMP280;47260;48.274;19.814;2023-03-01T01:50:58;100289.19;;;0.71
61390;BMP280;47260;48.274;19.814;2023-03-01T01:52:31;100290.72;;;0.72
61390;BMP280;47260;48.274;19.814;2023-03-01T01:54:06;100287.66;;;0.73
61390;BMP280;47260;48.274;19.814;2023-03-01T01:55:39;100286.13;;;0.76
61390;BMP280;47260;48.274;19.814;2023-03-01T01:57:13;100283.84;;;0.78
61390;BMP280;47260;48.274;19.814;2023-03-01T01:58:45;100284.59;;;0.78
61390;BMP280;47260;48.274;19.814;2023-03-01T02:00:19;100278.91;;;0.80
61390;BMP280;47260;48.274;19.814;2023-03-01T02:01:50;100286.84;;;0.80
61390;BMP280;47260;48.274;19.814;2023-03-01T02:03:22;100277.81;;;0.77
61390;BMP280;47260;48.274;19.814;2023-03-01T02:04:58;100287.66;;;0.73
61390;BMP280;47260;48.274;19.814;2023-03-01T02:06:35;100291.09;;;0.70
61390;BMP280;47260;48.274;19.814;2023-03-01T02:08:07;100287.34;;;0.68
61390;BMP280;47260;48.274;19.814;2023-03-01T02:09:38;100293.41;;;0.64
61390;BMP280;47260;48.274;19.814;2023-03-01T02:11:12;100299.09;;;0.63
61390;BMP280;47260;48.274;19.814;2023-03-01T02:12:44;100284.34;;;0.65
61390;BMP280;47260;48.274;19.814;2023-03-01T02:14:16;100291.91;;;0.63
61390;BMP280;47260;48.274;19.814;2023-03-01T02:15:48;100295.31;;;0.64
61390;BMP280;47260;48.274;19.814;2023-03-01T02:17:19;100295.31;;;0.64
61390;BMP280;47260;48.274;19.814;2023-03-01T02:18:50;100301.34;;;0.64
61390;BMP280;47260;48.274;19.814;2023-03-01T02:20:23;100296.44;;;0.63
61390;BMP280;47260;48.274;19.814;2023-03-01T02:21:59;100289.28;;;0.63
61390;BMP280;47260;48.274;19.814;2023-03-01T02:23:31;100295.72;;;0.62
61390;BMP280;47260;48.274;19.814;2023-03-01T02:25:07;100288.50;;;0.63
61390;BMP280;47260;48.274;19.814;2023-03-01T02:26:42;100296.06;;;0.64
61390;BMP280;47260;48.274;19.814;2023-03-01T02:28:27;100296.06;;;0.64
61390;BMP280;47260;48.274;19.814;2023-03-01T02:30:00;100293.78;;;0.66
61390;BMP280;47260;48.274;19.814;2023-03-01T02:31:31;100297.53;;;0.69
61390;BMP280;47260;48.274;19.814;2023-03-01T02:33:15;100299.03;;;0.70
61390;BMP280;47260;48.274;19.814;2023-03-01T02:34:46;100293.00;;;0.70
61390;BMP280;47260;48.274;19.814;2023-03-01T02:36:19;100294.53;;;0.67
61390;BMP280;47260;48.274;19.814;2023-03-01T02:37:50;100292.25;;;0.65
61390;BMP280;47260;48.274;19.814;2023-03-01T02:39:23;100285.16;;;0.62
61390;BMP280;47260;48.274;19.814;2023-03-01T02:40:56;100296.81;;;0.65
61390;BMP280;47260;48.274;19.814;2023-03-01T02:42:30;100286.97;;;0.65
61390;BMP280;47260;48.274;19.814;2023-03-01T02:44:04;100291.88;;;0.67
61390;BMP280;47260;48.274;19.814;2023-03-01T02:45:36;100296.00;;;0.68
61390;BMP280;47260;48.274;19.814;2023-03-01T02:47:07;100292.25;;;0.69
61390;BMP280;47260;48.274;19.814;2023-03-01T02:48:40;100293.38;;;0.68
61390;BMP280;47260;48.274;19.814;2023-03-01T02:50:18;100284.31;;;0.69
61390;BMP280;47260;48.274;19.814;2023-03-01T02:53:43;100293.38;;;0.68
61390;BMP280;47260;48.274;19.814;2023-03-01T02:55:16;100290.00;;;0.68
61390;BMP280;47260;48.274;19.814;2023-03-01T02:56:48;100282.44;;;0.66
61390;BMP280;47260;48.274;19.814;2023-03-01T02:58:21;100289.28;;;0.63
61390;BMP280;47260;48.274;19.814;2023-03-01T02:59:55;100288.16;;;0.61
61390;BMP280;47260;48.274;19.814;2023-03-01T03:01:27;100281.41;;;0.60
61390;BMP280;47260;48.274;19.814;2023-03-01T03:03:07;100280.28;;;0.57
61390;BMP280;47260;48.274;19.814;2023-03-01T03:04:39;100283.31;;;0.56
61390;BMP280;47260;48.274;19.814;2023-03-01T03:06:09;100280.72;;;0.52
61390;BMP280;47260;48.274;19.814;2023-03-01T03:07:43;100282.59;;;0.52
61390;BMP280;47260;48.274;19.814;2023-03-01T03:09:15;100277.34;;;0.48
61390;BMP280;47260;48.274;19.814;2023-03-01T03:10:46;100279.63;;;0.46
61390;BMP280;47260;48.274;19.814;2023-03-01T03:12:18;100276.63;;;0.44
61390;BMP280;47260;48.274;19.814;2023-03-01T03:13:49;100278.53;;;0.40
61390;BMP280;47260;48.274;19.814;2023-03-01T03:15:23;100273.31;;;0.37
61390;BMP280;47260;48.274;19.814;2023-03-01T03:16:54;100274.78;;;0.38
61390;BMP280;47260;48.274;19.814;2023-03-01T03:18:26;100275.19;;;0.36
61390;BMP280;47260;48.274;19.814;2023-03-01T03:19:56;100270.69;;;0.33
61390;BMP280;47260;48.274;19.814;2023-03-01T03:21:28;100271.50;;;0.30
61390;BMP280;47260;48.274;19.814;2023-03-01T03:23:00;100271.16;;;0.28
61390;BMP280;47260;48.274;19.814;2023-03-01T03:24:31;100274.56;;;0.25
61390;BMP280;47260;48.274;19.814;2023-03-01T03:26:08;100267.44;;;0.22
61390;BMP280;47260;48.274;19.814;2023-03-01T03:27:44;100267.88;;;0.17
61390;BMP280;47260;48.274;19.814;2023-03-01T03:29:14;100261.09;;;0.13
61390;BMP280;47260;48.274;19.814;2023-03-01T03:30:47;100270.16;;;0.12
61390;BMP280;47260;48.274;19.814;2023-03-01T03:32:20;100267.19;;;0.10
61390;BMP280;47260;48.274;19.814;2023-03-01T03:33:51;100267.19;;;0.10
61390;BMP280;47260;48.274;19.814;2023-03-01T03:35:24;100271.72;;;0.06
61390;BMP280;47260;48.274;19.814;2023-03-01T03:36:55;100269.06;;;0.06
61390;BMP280;47260;48.274;19.814;2023-03-01T03:38:29;100258.91;;;0.04
61390;BMP280;47260;48.274;19.814;2023-03-01T03:40:00;100266.47;;;0.02
61390;BMP280;47260;48.274;19.814;2023-03-01T03:41:34;100268.00;;;-0.01
61390;BMP280;47260;48.274;19.814;2023-03-01T03:43:06;100260.47;;;-0.02
61390;BMP280;47260;48.274;19.814;2023-03-01T03:44:37;100264.63;;;-0.05
61390;BMP280;47260;48.274;19.814;2023-03-01T03:46:10;100260.53;;;-0.09
61390;BMP280;47260;48.274;19.814;2023-03-01T03:47:42;100261.69;;;-0.14
61390;BMP280;47260;48.274;19.814;2023-03-01T03:49:14;100265.09;;;-0.13
61390;BMP280;47260;48.274;19.814;2023-03-01T03:50:47;100269.22;;;-0.12
61390;BMP280;47260;48.274;19.814;2023-03-01T03:52:18;100268.09;;;-0.11
61390;BMP280;47260;48.274;19.814;2023-03-01T03:53:49;100280.16;;;-0.10
61390;BMP280;47260;48.274;19.814;2023-03-01T03:55:21;100269.19;;;-0.09
61390;BMP280;47260;48.274;19.814;2023-03-01T03:56:51;100264.69;;;-0.08
61390;BMP280;47260;48.274;19.814;2023-03-01T03:58:23;100277.88;;;-0.12
61390;BMP280;47260;48.274;19.814;2023-03-01T03:59:53;100275.66;;;-0.13
61390;BMP280;47260;48.274;19.814;2023-03-01T04:01:26;100278.28;;;-0.13
61390;BMP280;47260;48.274;19.814;2023-03-01T04:02:58;100273.00;;;-0.13
61390;BMP280;47260;48.274;19.814;2023-03-01T04:04:29;100273.38;;;-0.11
61390;BMP280;47260;48.274;19.814;2023-03-01T04:06:01;100284.28;;;-0.09
61390;BMP280;47260;48.274;19.814;2023-03-01T04:07:34;100290.31;;;-0.09
61390;BMP280;47260;48.274;19.814;2023-03-01T04:09:04;100286.16;;;-0.10
61390;BMP280;47260;48.274;19.814;2023-03-01T04:10:37;100285.44;;;-0.10
61390;BMP280;47260;48.274;19.814;2023-03-01T04:12:07;100279.00;;;-0.09
61390;BMP280;47260;48.274;19.814;2023-03-01T04:13:39;100288.78;;;-0.06
61390;BMP280;47260;48.274;19.814;2023-03-01T04:15:11;100292.94;;;-0.05
61390;BMP280;47260;48.274;19.814;2023-03-01T04:16:47;100291.44;;;-0.06
61390;BMP280;47260;48.274;19.814;2023-03-01T04:18:21;100280.13;;;-0.07
61390;BMP280;47260;48.274;19.814;2023-03-01T04:19:52;100282.31;;;0.02
61390;BMP280;47260;48.274;19.814;2023-03-01T04:21:24;100277.75;;;0.06
61390;BMP280;47260;48.274;19.814;2023-03-01T04:22:59;100281.50;;;0.09
61390;BMP280;47260;48.274;19.814;2023-03-01T04:24:30;100287.56;;;0.06
61390;BMP280;47260;48.274;19.814;2023-03-01T04:26:01;100281.16;;;0.07
61390;BMP280;47260;48.274;19.814;2023-03-01T04:27:33;100282.63;;;0.08
61390;BMP280;47260;48.274;19.814;2023-03-01T04:29:04;100280.72;;;0.12
61390;BMP280;47260;48.274;19.814;2023-03-01T04:30:35;100276.22;;;0.12
61390;BMP280;47260;48.274;19.814;2023-03-01T04:32:07;100286.34;;;0.17
61390;BMP280;47260;48.274;19.814;2023-03-01T04:33:39;100273.50;;;0.19
61390;BMP280;47260;48.274;19.814;2023-03-01T04:35:11;100279.50;;;0.23
61390;BMP280;47260;48.274;19.814;2023-03-01T04:36:43;100279.47;;;0.27
61390;BMP280;47260;48.274;19.814;2023-03-01T04:38:14;100282.06;;;0.30
61390;BMP280;47260;48.274;19.814;2023-03-01T04:39:46;100278.63;;;0.33
61390;BMP280;47260;48.274;19.814;2023-03-01T04:41:18;100277.84;;;0.36
61390;BMP280;47260;48.274;19.814;2023-03-01T04:42:50;100274.84;;;0.34
61390;BMP280;47260;48.274;19.814;2023-03-01T04:44:20;100277.88;;;0.33
61390;BMP280;47260;48.274;19.814;2023-03-01T04:45:52;100276.78;;;0.30
61390;BMP280;47260;48.274;19.814;2023-03-01T04:47:25;100284.69;;;0.30
61390;BMP280;47260;48.274;19.814;2023-03-01T04:48:56;100281.34;;;0.30
61390;BMP280;47260;48.274;19.814;2023-03-01T04:50:28;100268.13;;;0.30
61390;BMP280;47260;48.274;19.814;2023-03-01T04:51:59;100269.63;;;0.31
61390;BMP280;47260;48.274;19.814;2023-03-01T04:53:32;100255.28;;;0.32
61390;BMP280;47260;48.274;19.814;2023-03-01T04:55:04;100262.41;;;0.35
61390;BMP280;47260;48.274;19.814;2023-03-01T04:56:34;100265.38;;;0.37
61390;BMP280;47260;48.274;19.814;2023-03-01T04:58:06;100263.84;;;0.39
61390;BMP280;47260;48.274;19.814;2023-03-01T04:59:37;100261.56;;;0.41
61390;BMP280;47260;48.274;19.814;2023-03-01T05:01:09;100252.88;;;0.44
61390;BMP280;47260;48.274;19.814;2023-03-01T05:02:47;100255.44;;;0.48
61390;BMP280;47260;48.274;19.814;2023-03-01T05:04:18;100257.72;;;0.49
61390;BMP280;47260;48.274;19.814;2023-03-01T05:05:50;100255.06;;;0.49
61390;BMP280;47260;48.274;19.814;2023-03-01T05:07:22;100262.66;;;0.47
61390;BMP280;47260;48.274;19.814;2023-03-01T05:08:54;100262.25;;;0.49
61390;BMP280;47260;48.274;19.814;2023-03-01T05:10:26;100260.75;;;0.48
61390;BMP280;47260;48.274;19.814;2023-03-01T05:11:59;100253.97;;;0.47
61390;BMP280;47260;48.274;19.814;2023-03-01T05:13:30;100256.22;;;0.48
61390;BMP280;47260;48.274;19.814;2023-03-01T05:15:02;100246.41;;;0.49
61390;BMP280;47260;48.274;19.814;2023-03-01T05:16:37;100252.44;;;0.49
61390;BMP280;47260;48.274;19.814;2023-03-01T05:18:09;100254.31;;;0.49
61390;BMP280;47260;48.274;19.814;2023-03-01T05:19:41;100252.44;;;0.49
61390;BMP280;47260;48.274;19.814;2023-03-01T05:21:13;100253.56;;;0.48
61390;BMP280;47260;48.274;19.814;2023-03-01T05:22:46;100250.91;;;0.52
61390;BMP280;47260;48.274;19.814;2023-03-01T05:24:16;100257.28;;;0.54
61390;BMP280;47260;48.274;19.814;2023-03-01T05:25:48;100263.69;;;0.53
61390;BMP280;47260;48.274;19.814;2023-03-01T05:27:22;100271.97;;;0.55
61390;BMP280;47260;48.274;19.814;2023-03-01T05:28:53;100270.06;;;0.59
61390;BMP280;47260;48.274;19.814;2023-03-01T05:30:28;100268.97;;;0.57
61390;BMP280;47260;48.274;19.814;2023-03-01T05:32:00;100276.13;;;0.56
61390;BMP280;47260;48.274;19.814;2023-03-01T05:33:32;100276.13;;;0.56
61390;BMP280;47260;48.274;19.814;2023-03-01T05:35:04;100275.72;;;0.61
61390;BMP280;47260;48.274;19.814;2023-03-01T05:36:35;100278.75;;;0.60
61390;BMP280;47260;48.274;19.814;2023-03-01T05:38:08;100274.56;;;0.62
61390;BMP280;47260;48.274;19.814;2023-03-01T05:39:43;100271.94;;;0.62
61390;BMP280;47260;48.274;19.814;2023-03-01T05:41:14;100274.94;;;0.64
61390;BMP280;47260;48.274;19.814;2023-03-01T05:42:47;100283.91;;;0.71
61390;BMP280;47260;48.274;19.814;2023-03-01T05:44:19;100282.34;;;0.77
61390;BMP280;47260;48.274;19.814;2023-03-01T05:45:50;100280.03;;;0.82
61390;BMP280;47260;48.274;19.814;2023-03-01T05:47:22;100283.03;;;0.81
61390;BMP280;47260;48.274;19.814;2023-03-01T05:48:55;100285.00;;;0.77
61390;BMP280;47260;48.274;19.814;2023-03-01T05:50:28;100285.41;;;0.75
61390;BMP280;47260;48.274;19.814;2023-03-01T05:51:59;100283.84;;;0.78
61390;BMP280;47260;48.274;19.814;2023-03-01T05:53:31;100286.09;;;0.79
61390;BMP280;47260;48.274;19.814;2023-03-01T05:55:02;100282.25;;;0.84
61390;BMP280;47260;48.274;19.814;2023-03-01T05:56:33;100288.97;;;0.92
61390;BMP280;47260;48.274;19.814;2023-03-01T05:58:06;100282.94;;;0.91
61390;BMP280;47260;48.274;19.814;2023-03-01T05:59:38;100289.69;;;0.96
61390;BMP280;47260;48.274;19.814;2023-03-01T06:01:10;100287.38;;;0.98
61390;BMP280;47260;48.274;19.814;2023-03-01T06:02:42;100284.72;;;1.01
61390;BMP280;47260;48.274;19.814;2023-03-01T06:04:15;100284.69;;;1.05
61390;BMP280;47260;48.274;19.814;2023-03-01T06:05:46;100279.31;;;1.08
61390;BMP280;47260;48.274;19.814;2023-03-01T06:07:18;100291.34;;;1.13
61390;BMP280;47260;48.274;19.814;2023-03-01T06:08:48;100288.66;;;1.20
61390;BMP280;47260;48.274;19.814;2023-03-01T06:10:20;100293.84;;;1.27
61390;BMP280;47260;48.274;19.814;2023-03-01T06:11:52;100300.91;;;1.33
61390;BMP280;47260;48.274;19.814;2023-03-01T06:13:24;100294.72;;;1.44
61390;BMP280;47260;48.274;19.814;2023-03-01T06:14:55;100295.44;;;1.48
61390;BMP280;47260;48.274;19.814;2023-03-01T06:16:27;100300.28;;;1.53
61390;BMP280;47260;48.274;19.814;2023-03-01T06:17:58;100293.78;;;1.57
61390;BMP280;47260;48.274;19.814;2023-03-01T06:19:31;100304.31;;;1.61
61390;BMP280;47260;48.274;19.814;2023-03-01T06:21:03;100307.22;;;1.70
61390;BMP280;47260;48.274;19.814;2023-03-01T06:22:34;100311.66;;;1.76
61390;BMP280;47260;48.274;19.814;2023-03-01T06:24:06;100308.44;;;1.88
61390;BMP280;47260;48.274;19.814;2023-03-01T06:25:38;100315.47;;;1.98
61390;BMP280;47260;48.274;19.814;2023-03-01T06:27:10;100321.47;;;2.03
61390;BMP280;47260;48.274;19.814;2023-03-01T06:28:41;100317.63;;;2.07
61390;BMP280;47260;48.274;19.814;2023-03-01T06:30:14;100311.41;;;2.17
61390;BMP280;47260;48.274;19.814;2023-03-01T06:31:46;100313.59;;;2.22
61390;BMP280;47260;48.274;19.814;2023-03-01T06:33:18;100313.44;;;2.29
61390;BMP280;47260;48.274;19.814;2023-03-01T06:34:51;100317.53;;;2.34
61390;BMP280;47260;48.274;19.814;2023-03-01T06:36:22;100322.38;;;2.39
61390;BMP280;47260;48.274;19.814;2023-03-01T06:37:54;100318.56;;;2.40
61390;BMP280;47260;48.274;19.814;2023-03-01T06:39:27;100315.50;;;2.41
61390;BMP280;47260;48.274;19.814;2023-03-01T06:40:58;100317.50;;;2.37
61390;BMP280;47260;48.274;19.814;2023-03-01T06:42:31;100334.13;;;2.38
61390;BMP280;47260;48.274;19.814;2023-03-01T06:44:01;100325.44;;;2.37
61390;BMP280;47260;48.274;19.814;2023-03-01T06:45:33;100329.97;;;2.37
61390;BMP280;47260;48.274;19.814;2023-03-01T06:47:04;100322.16;;;2.30
61390;BMP280;47260;48.274;19.814;2023-03-01T06:48:36;100313.94;;;2.44
61390;BMP280;47260;48.274;19.814;2023-03-01T06:50:10;100320.53;;;2.36
61390;BMP280;47260;48.274;19.814;2023-03-01T06:51:41;100314.41;;;2.39
61390;BMP280;47260;48.274;19.814;2023-03-01T06:53:13;100321.22;;;2.40
61390;BMP280;47260;48.274;19.814;2023-03-01T06:54:44;100317.88;;;2.36
61390;BMP280;47260;48.274;19.814;2023-03-01T06:56:16;100317.03;;;2.42
61390;BMP280;47260;48.274;19.814;2023-03-01T06:57:47;100317.69;;;2.46
61390;BMP280;47260;48.274;19.814;2023-03-01T06:59:19;100316.69;;;2.40
61390;BMP280;47260;48.274;19.814;2023-03-01T07:00:50;100311.38;;;2.40
61390;BMP280;47260;48.274;19.814;2023-03-01T07:02:22;100316.44;;;2.54
61390;BMP280;47260;48.274;19.814;2023-03-01T07:03:54;100324.66;;;2.60
61390;BMP280;47260;48.274;19.814;2023-03-01T07:05:26;100322.63;;;2.67
61390;BMP280;47260;48.274;19.814;2023-03-01T07:06:58;100316.63;;;2.63
61390;BMP280;47260;48.274;19.814;2023-03-01T07:08:29;100312.00;;;2.67
61390;BMP280;47260;48.274;19.814;2023-03-01T07:10:01;100319.38;;;2.60
61390;BMP280;47260;48.274;19.814;2023-03-01T07:11:32;100313.16;;;2.66
61390;BMP280;47260;48.274;19.814;2023-03-01T07:13:04;100323.56;;;2.77
61390;BMP280;47260;48.274;19.814;2023-03-01T07:14:36;100315.53;;;2.81
61390;BMP280;47260;48.274;19.814;2023-03-01T07:16:08;100312.69;;;2.91
61390;BMP280;47260;48.274;19.814;2023-03-01T07:17:39;100307.31;;;2.95
61390;BMP280;47260;48.274;19.814;2023-03-01T07:19:11;100312.53;;;2.98
61390;BMP280;47260;48.274;19.814;2023-03-01T07:20:44;100313.50;;;3.08
61390;BMP280;47260;48.274;19.814;2023-03-01T07:22:16;100311.38;;;3.19
61390;BMP280;47260;48.274;19.814;2023-03-01T07:23:47;100317.53;;;3.32
61390;BMP280;47260;48.274;19.814;2023-03-01T07:25:19;100315.41;;;3.43
61390;BMP280;47260;48.274;19.814;2023-03-01T07:26:51;100320.88;;;3.52
61390;BMP280;47260;48.274;19.814;2023-03-01T07:28:23;100314.84;;;3.68
61390;BMP280;47260;48.274;19.814;2023-03-01T07:29:55;100314.16;;;3.80
61390;BMP280;47260;48.274;19.814;2023-03-01T07:31:26;100314.88;;;3.96
61390;BMP280;47260;48.274;19.814;2023-03-01T07:32:58;100313.13;;;4.06
61390;BMP280;47260;48.274;19.814;2023-03-01T07:34:30;100321.09;;;4.06
61390;BMP280;47260;48.274;19.814;2023-03-01T07:36:03;100313.28;;;4.15
61390;BMP280;47260;48.274;19.814;2023-03-01T07:37:35;100309.66;;;4.09
61390;BMP280;47260;48.274;19.814;2023-03-01T07:39:06;100309.66;;;4.09
61390;BMP280;47260;48.274;19.814;2023-03-01T07:40:38;100313.28;;;4.15
61390;BMP280;47260;48.274;19.814;2023-03-01T07:42:09;100312.97;;;4.13
61390;BMP280;47260;48.274;19.814;2023-03-01T07:43:41;100306.22;;;4.25
61390;BMP280;47260;48.274;19.814;2023-03-01T07:45:12;100314.19;;;4.25
61390;BMP280;47260;48.274;19.814;2023-03-01T07:46:44;100306.38;;;4.34
61390;BMP280;47260;48.274;19.814;2023-03-01T07:48:16;100308.81;;;4.41
61390;BMP280;47260;48.274;19.814;2023-03-01T07:49:47;100305.03;;;4.54
61390;BMP280;47260;48.274;19.814;2023-03-01T07:51:20;100305.63;;;4.74
61390;BMP280;47260;48.274;19.814;2023-03-01T07:52:52;100312.13;;;4.86
61390;BMP280;47260;48.274;19.814;2023-03-01T07:54:23;100302.25;;;4.86
61390;BMP280;47260;48.274;19.814;2023-03-01T07:56:02;100295.66;;;5.04
61390;BMP280;47260;48.274;19.814;2023-03-01T07:57:34;100293.88;;;5.13
61390;BMP280;47260;48.274;19.814;2023-03-01T07:59:06;100288.50;;;5.26
61390;BMP280;47260;48.274;19.814;2023-03-01T08:00:37;100285.13;;;5.13
61390;BMP280;47260;48.274;19.814;2023-03-01T08:02:09;100290.78;;;5.15
61390;BMP280;47260;48.274;19.814;2023-03-01T08:03:40;100294.72;;;5.35
61390;BMP280;47260;48.274;19.814;2023-03-01T08:05:12;100289.13;;;5.55
61390;BMP280;47260;48.274;19.814;2023-03-01T08:06:45;100289.38;;;5.48
61390;BMP280;47260;48.274;19.814;2023-03-01T08:08:16;100295.13;;;5.46
61390;BMP280;47260;48.274;19.814;2023-03-01T08:09:48;100291.16;;;5.51
61390;BMP280;47260;48.274;19.814;2023-03-01T08:11:19;100292.53;;;5.55
61390;BMP280;47260;48.274;19.814;2023-03-01T08:12:51;100298.38;;;5.76
61390;BMP280;47260;48.274;19.814;2023-03-01T08:14:23;100291.50;;;5.87
61390;BMP280;47260;48.274;19.814;2023-03-01T08:16:00;100295.94;;;6.03
61390;BMP280;47260;48.274;19.814;2023-03-01T08:17:32;100294.16;;;5.87
61390;BMP280;47260;48.274;19.814;2023-03-01T08:19:04;100296.44;;;5.76
61390;BMP280;47260;48.274;19.814;2023-03-01T08:20:35;100291.78;;;6.02
61390;BMP280;47260;48.274;19.814;2023-03-01T08:22:08;100281.81;;;6.15
61390;BMP280;47260;48.274;19.814;2023-03-01T08:23:40;100290.44;;;6.40
61390;BMP280;47260;48.274;19.814;2023-03-01T08:25:11;100280.31;;;6.66
61390;BMP280;47260;48.274;19.814;2023-03-01T08:26:43;100284.03;;;6.60
61390;BMP280;47260;48.274;19.814;2023-03-01T08:28:14;100283.72;;;6.58
61390;BMP280;47260;48.274;19.814;2023-03-01T08:29:46;100274.97;;;6.57
61390;BMP280;47260;48.274;19.814;2023-03-01T08:31:18;100285.69;;;6.97
61390;BMP280;47260;48.274;19.814;2023-03-01T08:32:50;100276.53;;;7.16
61390;BMP280;47260;48.274;19.814;2023-03-01T08:34:22;100274.66;;;7.25
61390;BMP280;47260;48.274;19.814;2023-03-01T08:36:01;100281.28;;;7.03
61390;BMP280;47260;48.274;19.814;2023-03-01T08:37:34;100281.97;;;6.64
61390;BMP280;47260;48.274;19.814;2023-03-01T08:39:06;100286.72;;;6.69
61390;BMP280;47260;48.274;19.814;2023-03-01T08:40:37;100286.53;;;6.85
61390;BMP280;47260;48.274;19.814;2023-03-01T08:42:09;100288.34;;;6.66
61390;BMP280;47260;48.274;19.814;2023-03-01T08:43:40;100287.56;;;6.57
61390;BMP280;47260;48.274;19.814;2023-03-01T08:45:12;100286.06;;;6.77